Time;durP1;ratioP1;P1;durP2;ratioP2;P2;SDS_P1;SDS_P2;PMS_P1;PMS_P2;Temp;Humidity;BMP_temperature;BMP_pressure;BME280_temperature;BME280_humidity;BME280_pressure;Samples;Min_cycle;Max_cycle;Signal;HPM_P1;HPM_P2
2021/11/23 00:01:11;;;;;;;;;;;;;;;19.59;41.47;100936.48;98589;1398;72863;-82
2021/11/23 00:07:02;;;;;;;;;;;;;;;;;;;;;
2021/11/23 00:10:21;;;;;;;;;;;;;;;;;;;;;
2021/11/23 00:13:55;;;;;;;;;;;;;;;19.61;41.43;100949.80;98357;1398;71749;-81
2021/11/23 00:17:21;;;;;;;;;;;;;;;19.61;41.42;100945.31;98422;1395;72910;-82
2021/11/23 00:21:12;;;;;;;;;;;;;;;19.62;41.45;100947.80;98436;1398;60607;-82
2021/11/23 00:24:03;;;;;;;;;;;;;;;;;;;;;
2021/11/23 00:27:19;;;;;;;;;;;;;;;;;;;;;
2021/11/23 00:30:43;;;;;;;;;;;;;;;19.62;41.37;100956.83;98370;1398;75085;-82
2021/11/23 00:37:09;;;;;;;;;;;;;;;19.63;41.27;100958.41;97960;1403;62134;-82
2021/11/23 00:40:28;;;;;;;;;;;;;;;;;;;;;
2021/11/23 00:43:44;;;;;;;;;;;;;;;19.64;41.34;100964.42;97703;1408;73159;-81
2021/11/23 00:46:33;;;;;;;;;;;;;;;19.65;41.29;100965.45;97185;1408;60591;-80
2021/11/23 00:49:39;;;;;;;;;;;;;;;19.65;41.27;100962.39;97478;1407;60499;-81
2021/11/23 00:56:37;;;;;;;;;;;;;;;19.66;41.19;100963.77;97413;1404;72921;-81
2021/11/23 00:59:40;;;;;;;;;;;;;;;;;;;;;
2021/11/23 01:02:46;;;;;;;;;;;;;;;;;;;;;
2021/11/23 01:06:04;;;;;;;;;;;;;;;;;;;;;
2021/11/23 01:12:51;;;;;;;;;;;;;;;19.68;41.12;100972.23;98059;1398;60830;-82
2021/11/23 01:15:54;;;;;;;;;;;;;;;19.68;41.10;100978.10;97803;1400;60634;-82
2021/11/23 01:19:29;;;;;;;;;;;;;;;;;;;;;
2021/11/23 01:28:44;;;;;;;;;;;;;;;19.70;41.11;100974.25;98237;1403;61135;-82
2021/11/23 01:35:19;;;;;;;;;;;;;;;;;;;;;
2021/11/23 01:38:40;;;;;;;;;;;;;;;;;;;;;
2021/11/23 01:42:17;;;;;;;;;;;;;;;;;;;;;
2021/11/23 01:45:41;;;;;;;;;;;;;;;19.72;41.01;100973.92;97525;1402;72863;-82
2021/11/23 01:48:30;;;;;;;;;;;;;;;19.72;41.06;100976.56;97418;1412;74009;-82
2021/11/23 01:51:47;;;;;;;;;;;;;;;;;;;;;
2021/11/23 01:55:12;;;;;;;;;;;;;;;;;;;;;
2021/11/23 01:58:21;;;;;;;;;;;;;;;19.73;41.06;100974.71;97309;1412;73122;-82
2021/11/23 02:01:20;;;;;;;;;;;;;;;19.74;40.99;100974.48;97352;1412;74746;-81
2021/11/23 02:04:45;;;;;;;;;;;;;;;;;;;;;
2021/11/23 02:07:51;;;;;;;;;;;;;;;19.75;41.02;100969.98;97886;1404;60767;-81
2021/11/23 02:14:28;;;;;;;;;;;;;;;19.75;40.96;100978.70;99052;1390;72800;-82
2021/11/23 02:17:10;;;;;;;;;;;;;;;;;;;;;
2021/11/23 02:23:52;;;;;;;;;;;;;;;19.76;40.94;100954.05;98631;1392;71663;-81
2021/11/23 02:27:22;;;;;;;;;;;;;;;19.76;40.98;100947.96;98603;1391;74334;-82
2021/11/23 02:33:26;;;;;;;;;;;;;;;19.78;40.91;100956.23;98869;1392;61959;-82
2021/11/23 02:36:26;;;;;;;;;;;;;;;19.78;40.86;100961.61;98815;1392;73360;-82
2021/11/23 02:39:58;;;;;;;;;;;;;;;19.78;40.83;100960.31;98678;1392;71625;-82
2021/11/23 02:42:30;;;;;;;;;;;;;;;19.79;40.88;100960.66;98894;1383;60388;-82
2021/11/23 02:45:38;;;;;;;;;;;;;;;;;;;;;
2021/11/23 02:48:40;;;;;;;;;;;;;;;;;;;;;
2021/11/23 02:52:18;;;;;;;;;;;;;;;;;;;;;
2021/11/23 02:55:32;;;;;;;;;;;;;;;;;;;;;
2021/11/23 02:58:21;;;;;;;;;;;;;;;;;;;;;
2021/11/23 03:01:30;;;;;;;;;;;;;;;;;;;;;
2021/11/23 03:05:13;;;;;;;;;;;;;;;19.81;40.79;100978.02;99577;1380;72785;-82
2021/11/23 03:08:15;;;;;;;;;;;;;;;19.81;40.73;100980.35;99076;1389;60677;-82
2021/11/23 03:11:03;;;;;;;;;;;;;;;19.81;40.72;100985.17;99101;1384;60639;-82
2021/11/23 03:14:24;;;;;;;;;;;;;;;;;;;;;
2021/11/23 03:17:50;;;;;;;;;;;;;;;;;;;;;
2021/11/23 03:20:56;;;;;;;;;;;;;;;19.83;40.77;100992.92;99201;1383;60677;-82
2021/11/23 03:24:12;;;;;;;;;;;;;;;;;;;;;
2021/11/23 03:27:44;;;;;;;;;;;;;;;19.84;40.68;101005.89;98540;1400;73009;-82
2021/11/23 03:30:24;;;;;;;;;;;;;;;;;;;;;
2021/11/23 03:33:28;;;;;;;;;;;;;;;19.84;40.72;101008.17;98421;1395;60455;-81
2021/11/23 03:36:40;;;;;;;;;;;;;;;;;;;;;
2021/11/23 03:42:46;;;;;;;;;;;;;;;;;;;;;
2021/11/23 03:46:14;;;;;;;;;;;;;;;;;;;;;
2021/11/23 03:49:23;;;;;;;;;;;;;;;19.86;40.64;101007.15;97343;1409;61932;-82
2021/11/23 03:52:29;;;;;;;;;;;;;;;19.87;40.70;101011.77;97000;1413;72327;-82
2021/11/23 03:55:56;;;;;;;;;;;;;;;19.87;40.65;101011.06;96872;1415;73156;-82
2021/11/23 03:59:47;;;;;;;;;;;;;;;19.88;40.66;101014.06;96919;1414;60554;-82
2021/11/23 04:06:01;;;;;;;;;;;;;;;;;;;;;
2021/11/23 04:09:09;;;;;;;;;;;;;;;;;;;;;
2021/11/23 04:12:10;;;;;;;;;;;;;;;;;;;;;
2021/11/23 04:15:18;;;;;;;;;;;;;;;19.90;40.51;101010.13;96529;1420;61020;-80
2021/11/23 04:18:57;;;;;;;;;;;;;;;19.91;40.60;101005.27;96894;1411;73100;-80
2021/11/23 04:21:31;;;;;;;;;;;;;;;;;;;;;
2021/11/23 04:24:15;;;;;;;;;;;;;;;19.91;40.64;101006.67;97889;1406;60581;-81
2021/11/23 04:27:34;;;;;;;;;;;;;;;;;;;;;
2021/11/23 04:30:58;;;;;;;;;;;;;;;19.91;40.65;101018.26;98410;1399;73003;-80
2021/11/23 04:33:57;;;;;;;;;;;;;;;19.92;40.60;101022.48;98238;1402;74429;-82
2021/11/23 04:37:22;;;;;;;;;;;;;;;;;;;;;
2021/11/23 04:40:18;;;;;;;;;;;;;;;;;;;;;
2021/11/23 04:43:33;;;;;;;;;;;;;;;19.93;40.69;101026.36;98268;1400;71457;-82
2021/11/23 04:50:20;;;;;;;;;;;;;;;19.95;40.71;101025.77;97438;1405;60456;-81
2021/11/23 04:56:57;;;;;;;;;;;;;;;;;;;;;
2021/11/23 05:00:02;;;;;;;;;;;;;;;;;;;;;
2021/11/23 05:03:14;;;;;;;;;;;;;;;19.99;40.58;101048.02;97143;1411;60642;-81
2021/11/23 05:06:30;;;;;;;;;;;;;;;;;;;;;
2021/11/23 05:09:38;;;;;;;;;;;;;;;19.99;40.63;101056.41;97525;1406;71564;-81
2021/11/23 05:12:55;;;;;;;;;;;;;;;;;;;;;
2021/11/23 05:16:33;;;;;;;;;;;;;;;19.97;40.50;101065.84;97614;1405;62951;-80
2021/11/23 05:20:03;;;;;;;;;;;;;;;19.95;40.47;101065.60;97556;1402;60737;-81
2021/11/23 05:25:56;;;;;;;;;;;;;;;;;;;;;
2021/11/23 05:29:38;;;;;;;;;;;;;;;19.85;40.18;101063.52;97557;1401;61432;-81
2021/11/23 05:32:40;;;;;;;;;;;;;;;;;;;;;
2021/11/23 05:35:45;;;;;;;;;;;;;;;;;;;;;
2021/11/23 05:38:12;;;;;;;;;;;;;;;19.78;39.88;101065.71;97050;1404;75326;-79
2021/11/23 05:41:07;;;;;;;;;;;;;;;19.76;39.95;101070.23;97364;1400;60592;-80
2021/11/23 05:44:12;;;;;;;;;;;;;;;;;;;;;
2021/11/23 05:47:09;;;;;;;;;;;;;;;19.72;39.72;101076.05;97678;1397;72920;-80
2021/11/23 05:50:08;;;;;;;;;;;;;;;19.70;39.81;101077.83;97558;1397;75110;-79
2021/11/23 05:52:40;;;;;;;;;;;;;;;19.65;39.70;101087.89;97616;1397;61512;-79
2021/11/23 05:55:16;;;;;;;;;;;;;;;19.64;39.86;101093.15;98195;1392;61629;-80
2021/11/23 05:57:42;;;;;;;;;;;;;;;19.62;39.85;101098.81;97923;1392;60575;-79
2021/11/23 06:00:29;;;;;;;;;;;;;;;19.60;39.89;101105.52;97867;1391;73239;-79
2021/11/23 06:03:14;;;;;;;;;;;;;;;19.58;39.78;101113.47;98407;1385;61477;-79
2021/11/23 06:05:52;;;;;;;;;;;;;;;19.58;39.98;101124.02;98447;1386;60881;-80
2021/11/23 06:08:17;;;;;;;;;;;;;;;19.56;39.80;101133.79;98600;1379;74031;-80
2021/11/23 06:11:24;;;;;;;;;;;;;;;19.54;39.70;101141.23;99008;1374;73035;-80
2021/11/23 06:14:30;;;;;;;;;;;;;;;19.54;39.71;101143.35;99489;1370;61427;-79
2021/11/23 06:17:29;;;;;;;;;;;;;;;19.53;39.59;101151.98;99367;1374;60569;-80
2021/11/23 06:20:18;;;;;;;;;;;;;;;19.52;39.58;101157.58;99345;1375;73223;-80
2021/11/23 06:22:47;;;;;;;;;;;;;;;19.53;39.57;101158.63;100731;1375;75113;-80
2021/11/23 06:25:18;;;;;;;;;;;;;;;19.54;39.56;101160.69;99326;1377;60609;-80
2021/11/23 06:28:35;;;;;;;;;;;;;;;;;;;;;
2021/11/23 06:31:03;;;;;;;;;;;;;;;19.59;39.49;101172.01;100847;1371;72957;-80
2021/11/23 06:33:28;;;;;;;;;;;;;;;19.60;39.44;101172.48;99817;1374;60578;-80
2021/11/23 06:35:57;;;;;;;;;;;;;;;19.61;39.45;101176.16;99398;1378;60564;-79
2021/11/23 06:38:28;;;;;;;;;;;;;;;19.64;39.45;101183.68;99596;1375;60633;-79
2021/11/23 06:41:15;;;;;;;;;;;;;;;19.66;39.37;101186.92;99305;1372;71511;-79
2021/11/23 06:44:02;;;;;;;;;;;;;;;;;;;;;
2021/11/23 06:47:10;;;;;;;;;;;;;;;;;;;;;
2021/11/23 06:50:01;;;;;;;;;;;;;;;19.72;39.17;101197.86;99910;1373;60417;-79
2021/11/23 06:52:56;;;;;;;;;;;;;;;19.73;39.11;101196.89;99532;1368;72745;-79
2021/11/23 06:55:31;;;;;;;;;;;;;;;19.73;39.00;101199.21;99053;1377;73941;-79
2021/11/23 06:57:59;;;;;;;;;;;;;;;19.68;38.98;101203.79;99513;1375;60542;-79
2021/11/23 07:00:33;;;;;;;;;;;;;;;19.63;38.97;101207.30;99610;1372;63232;-79
2021/11/23 07:03:08;;;;;;;;;;;;;;;19.57;39.15;101207.11;99753;1368;74109;-82
2021/11/23 07:05:39;;;;;;;;;;;;;;;19.53;39.24;101204.48;99915;1368;73952;-79
2021/11/23 07:08:12;;;;;;;;;;;;;;;19.52;39.26;101207.20;100151;1366;61955;-79
2021/11/23 07:10:41;;;;;;;;;;;;;;;19.51;39.36;101207.27;100226;1368;60655;-79
2021/11/23 07:13:35;;;;;;;;;;;;;;;19.51;39.26;101206.58;100470;1366;74025;-80
2021/11/23 07:16:09;;;;;;;;;;;;;;;19.51;39.34;101207.80;99937;1371;74109;-80
2021/11/23 07:18:48;;;;;;;;;;;;;;;19.50;39.26;101215.52;100230;1368;61362;-79
2021/11/23 07:21:22;;;;;;;;;;;;;;;19.51;39.33;101220.48;100062;1367;60478;-80
2021/11/23 07:23:56;;;;;;;;;;;;;;;19.53;39.26;101221.27;99752;1371;72719;-80
2021/11/23 07:26:30;;;;;;;;;;;;;;;19.56;39.19;101224.84;100505;1359;75084;-80
2021/11/23 07:28:59;;;;;;;;;;;;;;;19.58;39.20;101227.59;100589;1361;60564;-79
2021/11/23 07:31:25;;;;;;;;;;;;;;;19.61;39.20;101235.46;100505;1366;61377;-80
2021/11/23 07:34:00;;;;;;;;;;;;;;;19.62;39.08;101236.99;101150;1359;60572;-79
2021/11/23 07:36:42;;;;;;;;;;;;;;;;;;;;;
2021/11/23 07:39:21;;;;;;;;;;;;;;;19.66;39.13;101243.52;101219;1355;60285;-79
2021/11/23 07:42:10;;;;;;;;;;;;;;;19.69;39.05;101247.34;101269;1354;60456;-79
2021/11/23 07:44:45;;;;;;;;;;;;;;;;;;;;;
2021/11/23 07:47:54;;;;;;;;;;;;;;;19.73;39.02;101261.54;101311;1359;75557;-81
2021/11/23 07:50:29;;;;;;;;;;;;;;;19.76;38.87;101266.35;100653;1358;60531;-82
2021/11/23 07:53:17;;;;;;;;;;;;;;;19.78;38.99;101264.30;100034;1363;60543;-81
2021/11/23 07:55:48;;;;;;;;;;;;;;;19.74;39.02;101273.08;100159;1360;73002;-81
2021/11/23 07:58:23;;;;;;;;;;;;;;;19.62;38.91;101278.41;100070;1362;74078;-81
2021/11/23 08:00:57;;;;;;;;;;;;;;;19.45;39.02;101277.23;100224;1363;60666;-79
2021/11/23 08:03:26;;;;;;;;;;;;;;;19.26;39.17;101281.16;100331;1362;60702;-79
2021/11/23 08:05:52;;;;;;;;;;;;;;;19.13;39.36;101285.48;100116;1363;60690;-78
2021/11/23 08:08:29;;;;;;;;;;;;;;;19.14;39.61;101294.14;100235;1362;60780;-78
2021/11/23 08:11:08;;;;;;;;;;;;;;;19.18;39.71;101293.20;100567;1361;61124;-79
2021/11/23 08:14:02;;;;;;;;;;;;;;;19.25;39.70;101296.90;100572;1366;60464;-79
2021/11/23 08:16:57;;;;;;;;;;;;;;;19.31;39.72;101303.01;100448;1361;71649;-79
2021/11/23 08:19:43;;;;;;;;;;;;;;;19.36;39.75;101304.70;100417;1366;73814;-80
2021/11/23 08:22:19;;;;;;;;;;;;;;;;;;;;;
2021/11/23 08:24:51;;;;;;;;;;;;;;;19.45;39.88;101308.11;100422;1361;60567;-79
2021/11/23 08:30:41;;;;;;;;;;;;;;;19.53;39.99;101309.84;101115;1350;74905;-79
2021/11/23 08:33:10;;;;;;;;;;;;;;;19.54;39.95;101311.21;101386;1348;60523;-79
2021/11/23 08:35:44;;;;;;;;;;;;;;;19.54;39.93;101314.95;101222;1351;60681;-80
2021/11/23 08:38:15;;;;;;;;;;;;;;;19.55;39.94;101316.84;101660;1348;73807;-80
2021/11/23 08:40:56;;;;;;;;;;;;;;;;;;;;;
2021/11/23 08:43:55;;;;;;;;;;;;;;;19.52;39.94;101324.16;101464;1348;60511;-80
2021/11/23 08:47:12;;;;;;;;;;;;;;;;;;;;;
2021/11/23 08:52:47;;;;;;;;;;;;;;;19.51;39.93;101324.57;100062;1362;74062;-80
2021/11/23 08:55:38;;;;;;;;;;;;;;;19.53;40.03;101321.60;99886;1362;61558;-79
2021/11/23 08:58:04;;;;;;;;;;;;;;;19.49;39.96;101323.81;100378;1366;61660;-80
2021/11/23 09:00:30;;;;;;;;;;;;;;;19.36;40.03;101327.55;100869;1370;58568;-79
2021/11/23 09:02:59;;;;;;;;;;;;;;;19.26;40.23;101327.40;100291;1375;59371;-80
2021/11/23 09:05:25;;;;;;;;;;;;;;;19.21;40.33;101325.70;99993;1371;60514;-79
2021/11/23 09:07:50;;;;;;;;;;;;;;;19.20;40.35;101324.85;99641;1374;60627;-79
2021/11/23 09:10:21;;;;;;;;;;;;;;;19.22;40.50;101326.90;99478;1368;73603;-79
2021/11/23 09:12:47;;;;;;;;;;;;;;;19.28;40.56;101332.30;100599;1371;75332;-79
2021/11/23 09:15:13;;;;;;;;;;;;;;;19.34;40.57;101332.32;100213;1368;59525;-79
2021/11/23 09:17:42;;;;;;;;;;;;;;;19.38;40.55;101333.65;99630;1368;62130;-79
2021/11/23 09:20:09;;;;;;;;;;;;;;;19.45;40.64;101338.69;99549;1364;72732;-78
2021/11/23 09:22:46;;;;;;;;;;;;;;;;;;;;;
2021/11/23 09:25:12;;;;;;;;;;;;;;;19.56;40.56;101344.27;100005;1368;62856;-78
2021/11/23 09:28:03;;;;;;;;;;;;;;;19.61;40.59;101344.53;99610;1368;60546;-80
2021/11/23 09:30:37;;;;;;;;;;;;;;;19.66;40.54;101342.86;100366;1356;73880;-79
2021/11/23 09:33:27;;;;;;;;;;;;;;;19.69;40.81;101345.31;100783;1357;72972;-78
2021/11/23 09:36:00;;;;;;;;;;;;;;;19.73;40.64;101347.06;101146;1347;60501;-79
2021/11/23 09:39:17;;;;;;;;;;;;;;;19.77;40.57;101352.41;101329;1348;60616;-78
2021/11/23 09:42:03;;;;;;;;;;;;;;;19.80;40.61;101344.40;100874;1356;73637;-78
2021/11/23 09:44:34;;;;;;;;;;;;;;;19.82;40.97;101348.54;100900;1356;74842;-78
2021/11/23 09:47:33;;;;;;;;;;;;;;;;;;;;;
2021/11/23 09:50:44;;;;;;;;;;;;;;;19.88;40.89;101347.51;100721;1359;60641;-79
2021/11/23 09:53:18;;;;;;;;;;;;;;;19.91;41.01;101349.29;100095;1362;72817;-80
2021/11/23 09:55:44;;;;;;;;;;;;;;;19.91;40.96;101345.73;99903;1364;75016;-79
2021/11/23 09:58:30;;;;;;;;;;;;;;;19.87;40.97;101348.13;99954;1365;60528;-79
2021/11/23 10:01:00;;;;;;;;;;;;;;;19.65;40.79;101352.72;100105;1362;60717;-79
2021/11/23 10:03:44;;;;;;;;;;;;;;;19.51;40.95;101356.73;100022;1362;73878;-78
2021/11/23 10:06:29;;;;;;;;;;;;;;;19.47;41.06;101360.67;99934;1362;73358;-79
2021/11/23 10:09:35;;;;;;;;;;;;;;;19.47;41.09;101358.54;99961;1362;59256;-81
2021/11/23 10:12:44;;;;;;;;;;;;;;;19.51;41.19;101363.12;100442;1362;60871;-79
2021/11/23 10:15:24;;;;;;;;;;;;;;;19.56;41.16;101364.81;100206;1362;73948;-79
2021/11/23 10:18:31;;;;;;;;;;;;;;;19.62;41.32;101363.28;100394;1362;72704;-79
2021/11/23 10:21:29;;;;;;;;;;;;;;;19.68;41.33;101365.41;100735;1356;60879;-79
2021/11/23 10:24:04;;;;;;;;;;;;;;;19.72;41.50;101368.56;100944;1357;60620;-79
2021/11/23 10:26:53;;;;;;;;;;;;;;;;;;;;;
2021/11/23 10:29:51;;;;;;;;;;;;;;;19.80;41.63;101370.78;101059;1354;73642;-79
2021/11/23 10:32:31;;;;;;;;;;;;;;;19.83;41.78;101365.66;101442;1351;60604;-79
2021/11/23 10:35:56;;;;;;;;;;;;;;;19.86;41.99;101368.19;101340;1351;61379;-80
2021/11/23 10:38:21;;;;;;;;;;;;;;;19.90;41.91;101367.77;101276;1347;71447;-79
2021/11/23 10:41:08;;;;;;;;;;;;;;;;;;;;;
2021/11/23 10:43:56;;;;;;;;;;;;;;;;;;;;;
2021/11/23 10:47:17;;;;;;;;;;;;;;;19.99;42.25;101366.73;101390;1348;60397;-79
2021/11/23 10:49:46;;;;;;;;;;;;;;;20.01;42.15;101371.61;101177;1348;73924;-80
2021/11/23 10:52:34;;;;;;;;;;;;;;;20.02;42.55;101372.08;100831;1350;75634;-79
2021/11/23 10:55:02;;;;;;;;;;;;;;;19.95;42.28;101374.95;100862;1350;61014;-80
2021/11/23 10:57:41;;;;;;;;;;;;;;;19.81;42.15;101373.64;101137;1348;60497;-78
2021/11/23 11:00:08;;;;;;;;;;;;;;;19.70;42.11;101378.17;102587;1350;72850;-79
2021/11/23 11:02:45;;;;;;;;;;;;;;;19.58;42.05;101378.43;102506;1345;74816;-79
2021/11/23 11:05:12;;;;;;;;;;;;;;;19.53;42.12;101376.58;102596;1345;58817;-79
2021/11/23 11:07:38;;;;;;;;;;;;;;;19.50;42.18;101377.11;102595;1352;58398;-79
2021/11/23 11:10:08;;;;;;;;;;;;;;;19.46;42.34;101373.63;102495;1347;58821;-79
2021/11/23 11:12:33;;;;;;;;;;;;;;;19.48;42.35;101374.89;102427;1348;75110;-79
2021/11/23 11:14:59;;;;;;;;;;;;;;;19.53;42.58;101375.15;101225;1347;60526;-79
2021/11/23 11:17:28;;;;;;;;;;;;;;;19.58;42.33;101375.27;101050;1350;60534;-79
2021/11/23 11:19:54;;;;;;;;;;;;;;;19.62;42.49;101376.48;101241;1348;75525;-80
2021/11/23 11:22:32;;;;;;;;;;;;;;;19.64;42.47;101377.95;101139;1348;60629;-78
2021/11/23 11:25:44;;;;;;;;;;;;;;;19.67;42.36;101381.52;100942;1351;60599;-80
2021/11/23 11:28:10;;;;;;;;;;;;;;;19.71;42.53;101378.83;101182;1350;61004;-80
2021/11/23 11:30:41;;;;;;;;;;;;;;;19.74;42.50;101382.59;100801;1354;73112;-79
2021/11/23 11:33:32;;;;;;;;;;;;;;;19.75;42.66;101383.56;100958;1357;73958;-79
2021/11/23 11:36:07;;;;;;;;;;;;;;;19.76;42.44;101384.06;100866;1356;61523;-79
2021/11/23 11:39:12;;;;;;;;;;;;;;;19.78;42.58;101382.89;100862;1356;60554;-79
2021/11/23 11:42:03;;;;;;;;;;;;;;;19.81;42.68;101380.80;100577;1360;71599;-81
2021/11/23 11:44:42;;;;;;;;;;;;;;;19.84;42.56;101382.95;100297;1361;74160;-79
2021/11/23 11:47:18;;;;;;;;;;;;;;;19.85;42.59;101380.02;100225;1362;61819;-79
2021/11/23 11:50:51;;;;;;;;;;;;;;;19.83;42.38;101382.85;100384;1350;60746;-79
2021/11/23 11:53:10;;;;;;;;;;;;;;;19.75;42.31;101382.14;100491;1362;74085;-79
2021/11/23 11:55:47;;;;;;;;;;;;;;;19.65;42.26;101387.86;101396;1362;74915;-79
2021/11/23 11:58:13;;;;;;;;;;;;;;;19.52;42.23;101390.77;101589;1363;61314;-80
2021/11/23 12:00:42;;;;;;;;;;;;;;;19.42;42.21;101396.27;101642;1366;58691;-79
2021/11/23 12:03:13;;;;;;;;;;;;;;;19.33;42.17;101402.52;101513;1362;73763;-80
2021/11/23 12:06:00;;;;;;;;;;;;;;;19.22;42.16;101403.95;101633;1361;75558;-81
2021/11/23 12:08:30;;;;;;;;;;;;;;;19.15;42.31;101404.19;102029;1357;60310;-80
2021/11/23 12:10:55;;;;;;;;;;;;;;;19.17;42.41;101408.73;102229;1352;61890;-80
2021/11/23 12:13:35;;;;;;;;;;;;;;;19.22;42.31;101409.16;102020;1358;253072;-80
2021/11/23 12:16:05;;;;;;;;;;;;;;;19.30;42.37;101407.34;102173;1351;75228;-80
2021/11/23 12:18:53;;;;;;;;;;;;;;;19.35;42.33;101406.81;102163;1350;60211;-79
2021/11/23 12:21:20;;;;;;;;;;;;;;;19.40;42.30;101405.69;102702;1348;59614;-79
2021/11/23 12:23:56;;;;;;;;;;;;;;;19.46;42.13;101405.18;102035;1348;60454;-80
2021/11/23 12:26:28;;;;;;;;;;;;;;;19.53;42.18;101399.83;101353;1347;74099;-79
2021/11/23 12:29:00;;;;;;;;;;;;;;;19.57;42.22;101402.04;101367;1347;60470;-80
2021/11/23 12:31:28;;;;;;;;;;;;;;;19.62;41.97;101405.17;101407;1351;60542;-79
2021/11/23 12:34:21;;;;;;;;;;;;;;;19.67;42.18;101411.01;101318;1350;73348;-79
2021/11/23 12:37:09;;;;;;;;;;;;;;;19.69;41.96;101414.10;100979;1360;74842;-79
2021/11/23 12:39:55;;;;;;;;;;;;;;;;;;;;;
2021/11/23 12:42:33;;;;;;;;;;;;;;;19.72;41.95;101416.05;100940;1354;60442;-80
2021/11/23 12:45:04;;;;;;;;;;;;;;;19.74;41.93;101418.27;100878;1353;74134;-80
2021/11/23 12:47:41;;;;;;;;;;;;;;;19.74;41.82;101420.26;100902;1356;73825;-80
2021/11/23 12:50:13;;;;;;;;;;;;;;;19.72;41.67;101423.40;100769;1353;61353;-81
2021/11/23 12:53:08;;;;;;;;;;;;;;;19.50;41.38;101431.56;100793;1357;61649;-79
2021/11/23 12:55:33;;;;;;;;;;;;;;;19.08;41.37;101435.43;102259;1359;72942;-80
2021/11/23 12:58:00;;;;;;;;;;;;;;;18.98;41.73;101441.81;102167;1356;58710;-80
2021/11/23 13:00:26;;;;;;;;;;;;;;;18.97;41.68;101440.48;102269;1356;58642;-79
2021/11/23 13:02:55;;;;;;;;;;;;;;;18.90;41.71;101443.48;102339;1354;58811;-80
2021/11/23 13:05:24;;;;;;;;;;;;;;;18.89;41.88;101447.27;102198;1356;73665;-79
2021/11/23 13:08:05;;;;;;;;;;;;;;;18.90;41.81;101448.09;102310;1353;75454;-79
2021/11/23 13:10:31;;;;;;;;;;;;;;;18.87;42.06;101451.27;102363;1353;60495;-80
2021/11/23 13:13:00;;;;;;;;;;;;;;;18.96;42.37;101456.88;102334;1354;58869;-79
2021/11/23 13:15:27;;;;;;;;;;;;;;;19.10;42.85;101457.45;102453;1351;73694;-79
2021/11/23 13:18:15;;;;;;;;;;;;;;;19.20;42.79;101459.05;101239;1350;73781;-79
2021/11/23 13:21:27;;;;;;;;;;;;;;;19.31;42.58;101461.54;101369;1354;60445;-79
2021/11/23 13:24:41;;;;;;;;;;;;;;;19.39;42.42;101465.73;100762;1359;61291;-80
2021/11/23 13:27:28;;;;;;;;;;;;;;;19.47;42.26;101467.63;101018;1363;72860;-80
2021/11/23 13:30:09;;;;;;;;;;;;;;;19.54;42.09;101469.05;100764;1367;75200;-80
2021/11/23 13:33:21;;;;;;;;;;;;;;;19.59;42.02;101465.70;100313;1365;62612;-79
2021/11/23 13:36:42;;;;;;;;;;;;;;;19.64;41.89;101467.07;99131;1371;60757;-78
2021/11/23 13:39:48;;;;;;;;;;;;;;;19.68;41.78;101466.84;99095;1377;73543;-81
2021/11/23 13:42:52;;;;;;;;;;;;;;;19.72;41.68;101458.58;98819;1384;75061;-78
2021/11/23 13:45:39;;;;;;;;;;;;;;;;;;;;;
2021/11/23 13:48:55;;;;;;;;;;;;;;;;;;;;;
2021/11/23 13:51:42;;;;;;;;;;;;;;;;;;;;;
2021/11/23 13:54:28;;;;;;;;;;;;;;;19.81;41.40;101481.89;98658;1384;73945;-79
2021/11/23 13:57:16;;;;;;;;;;;;;;;;;;;;;
2021/11/23 14:00:20;;;;;;;;;;;;;;;19.80;41.23;101485.48;98220;1394;62110;-79
2021/11/23 14:03:20;;;;;;;;;;;;;;;19.80;41.08;101490.65;98583;1385;72789;-79
2021/11/23 14:06:22;;;;;;;;;;;;;;;19.80;41.02;101492.11;98603;1389;74110;-79
2021/11/23 14:09:01;;;;;;;;;;;;;;;19.78;40.81;101490.91;99127;1385;60588;-79
2021/11/23 14:12:01;;;;;;;;;;;;;;;19.78;40.72;101493.25;99212;1377;60556;-79
2021/11/23 14:15:28;;;;;;;;;;;;;;;19.80;40.57;101492.81;99951;1368;71698;-79
2021/11/23 14:19:28;;;;;;;;;;;;;;;19.83;40.43;101495.89;99580;1381;72577;-80
2021/11/23 14:22:57;;;;;;;;;;;;;;;19.84;40.37;101500.46;100089;1374;60606;-81
2021/11/23 14:25:51;;;;;;;;;;;;;;;;;;;;;
2021/11/23 14:29:21;;;;;;;;;;;;;;;19.88;40.23;101503.26;99401;1377;71937;-82
2021/11/23 14:32:33;;;;;;;;;;;;;;;;;;;;;
2021/11/23 14:36:24;;;;;;;;;;;;;;;19.92;40.07;101508.95;99191;1380;61401;-80
2021/11/23 14:39:51;;;;;;;;;;;;;;;19.95;39.90;101501.50;99040;1390;62415;-81
2021/11/23 14:42:42;;;;;;;;;;;;;;;;;;;;;
2021/11/23 14:52:49;;;;;;;;;;;;;;;19.99;39.71;101522.89;96670;1414;62437;-80
2021/11/23 14:55:46;;;;;;;;;;;;;;;;;;;;;
2021/11/23 15:01:46;;;;;;;;;;;;;;;20.01;39.44;101530.80;96782;1417;61365;-80
2021/11/23 15:05:02;;;;;;;;;;;;;;;;;;;;;
2021/11/23 15:08:54;;;;;;;;;;;;;;;20.02;39.34;101534.84;97340;1408;74205;-82
2021/11/23 15:11:55;;;;;;;;;;;;;;;20.02;39.30;101539.47;97766;1405;73135;-82
2021/11/23 15:14:56;;;;;;;;;;;;;;;20.03;39.23;101546.43;97402;1409;60959;-81
2021/11/23 15:18:01;;;;;;;;;;;;;;;;;;;;;
2021/11/23 15:24:59;;;;;;;;;;;;;;;20.04;39.04;101552.80;98087;1398;75639;-81
2021/11/23 15:27:48;;;;;;;;;;;;;;;20.04;39.03;101554.20;98101;1399;60503;-79
2021/11/23 15:30:53;;;;;;;;;;;;;;;20.05;38.99;101556.11;98570;1394;61592;-79
2021/11/23 15:34:20;;;;;;;;;;;;;;;20.06;38.89;101564.31;98656;1394;75102;-81
2021/11/23 15:37:16;;;;;;;;;;;;;;;;;;;;;
2021/11/23 15:40:23;;;;;;;;;;;;;;;;;;;;;
2021/11/23 15:47:02;;;;;;;;;;;;;;;20.06;38.78;101586.61;97572;1402;73068;-81
2021/11/23 15:50:28;;;;;;;;;;;;;;;;;;;;;
2021/11/23 15:53:31;;;;;;;;;;;;;;;;;;;;;
2021/11/23 16:00:19;;;;;;;;;;;;;;;;;;;;;
2021/11/23 16:03:30;;;;;;;;;;;;;;;20.08;38.51;101600.65;98316;1399;74346;-81
2021/11/23 16:06:49;;;;;;;;;;;;;;;;;;;;;
2021/11/23 16:17:16;;;;;;;;;;;;;;;20.09;38.41;101620.08;97740;1403;72856;-81
2021/11/23 16:20:34;;;;;;;;;;;;;;;20.09;38.36;101625.77;97553;1402;60588;-81
2021/11/23 16:23:15;;;;;;;;;;;;;;;;;;;;;
2021/11/23 16:26:24;;;;;;;;;;;;;;;;;;;;;
2021/11/23 16:29:50;;;;;;;;;;;;;;;;;;;;;
2021/11/23 16:36:55;;;;;;;;;;;;;;;20.10;38.36;101641.77;97787;1401;60508;-81
2021/11/23 16:40:05;;;;;;;;;;;;;;;;;;;;;
2021/11/23 16:43:13;;;;;;;;;;;;;;;;;;;;;
2021/11/23 16:46:27;;;;;;;;;;;;;;;20.11;38.07;101644.61;97035;1414;60627;-80
2021/11/23 16:49:47;;;;;;;;;;;;;;;20.12;38.25;101649.94;96854;1411;61835;-81
2021/11/23 16:53:13;;;;;;;;;;;;;;;20.12;37.95;101651.55;96994;1414;71661;-80
2021/11/23 16:56:39;;;;;;;;;;;;;;;20.12;38.10;101654.77;97500;1408;72893;-80
2021/11/23 17:00:07;;;;;;;;;;;;;;;20.12;38.23;101659.41;97730;1404;60513;-80
2021/11/23 17:02:47;;;;;;;;;;;;;;;20.13;37.98;101660.97;97311;1405;62634;-80
2021/11/23 17:05:54;;;;;;;;;;;;;;;20.13;37.90;101663.46;97237;1407;74019;-81
2021/11/23 17:09:28;;;;;;;;;;;;;;;20.13;37.96;101671.50;97883;1402;75143;-81
2021/11/23 17:12:29;;;;;;;;;;;;;;;20.13;38.07;101675.96;97974;1405;60669;-80
2021/11/23 17:15:35;;;;;;;;;;;;;;;20.14;37.86;101676.47;98790;1390;60831;-82
2021/11/23 17:18:30;;;;;;;;;;;;;;;;;;;;;
2021/11/23 17:25:54;;;;;;;;;;;;;;;20.14;37.84;101684.86;98555;1401;60941;-83
2021/11/23 17:28:56;;;;;;;;;;;;;;;20.14;37.83;101685.91;97938;1398;62175;-82
2021/11/23 17:31:45;;;;;;;;;;;;;;;;;;;;;
2021/11/23 17:34:39;;;;;;;;;;;;;;;;;;;;;
2021/11/23 17:37:27;;;;;;;;;;;;;;;;;;;;;
2021/11/23 17:40:43;;;;;;;;;;;;;;;20.15;37.57;101682.32;97604;1407;61930;-80
2021/11/23 17:47:34;;;;;;;;;;;;;;;20.15;37.43;101683.00;97606;1401;74108;-80
2021/11/23 17:50:27;;;;;;;;;;;;;;;;;;;;;
2021/11/23 17:53:36;;;;;;;;;;;;;;;20.16;37.40;101685.80;97121;1407;61712;-81
2021/11/23 17:56:52;;;;;;;;;;;;;;;;;;;;;
2021/11/23 18:00:27;;;;;;;;;;;;;;;;;;;;;
2021/11/23 18:03:54;;;;;;;;;;;;;;;20.17;37.43;101697.35;98231;1403;60641;-80
2021/11/23 18:07:10;;;;;;;;;;;;;;;;;;;;;
2021/11/23 18:10:01;;;;;;;;;;;;;;;;;;;;;
2021/11/23 18:13:28;;;;;;;;;;;;;;;20.18;37.22;101693.77;97945;1402;72886;-82
2021/11/23 18:16:27;;;;;;;;;;;;;;;;;;;;;
2021/11/23 18:20:08;;;;;;;;;;;;;;;20.18;37.17;101706.61;98033;1398;60513;-82
2021/11/23 18:22:54;;;;;;;;;;;;;;;20.19;37.08;101715.16;97534;1408;72862;-81
2021/11/23 18:29:43;;;;;;;;;;;;;;;;;;;;;
2021/11/23 18:32:55;;;;;;;;;;;;;;;20.19;37.12;101718.20;97581;1407;61181;-82
2021/11/23 18:43:04;;;;;;;;;;;;;;;;;;;;;
2021/11/23 18:46:23;;;;;;;;;;;;;;;;;;;;;
2021/11/23 18:49:09;;;;;;;;;;;;;;;20.20;36.76;101728.86;96595;1420;74236;-81